Golconda, Nevada
Current Conditions -  °F | °C
As of 4:56 AM on Wednesday 22 Oct 2014 (Local Time) from KWMC Reporting Station
Clear Clear  
Wind Chill: 22°   Ceiling: Unl
Heat Index: 27°   Visibility: 10mi
Dew Point: 19°   Wind: 5mph
Humidity: 72%   Direction: 110°ESE
Pressure: 30.13"   Gusts: NA
Location:  40.95°N, 117.49°W
Report Text: KWMC 221156Z AUTO 11004KT 10SM CLR M03/M07 A3013 RMK AO2 SLP202 T10281072 10011 21028 53005
Loading
Personal Weather Stations






























Interactive Weather Map
Tropical Storm Tracking
New forecast layout! Learn more

10-Day Weather Forecast

Advertisements
Track Severe Weather on mobile